createdAt,value
2022-09-13T00:00:02.092Z,99.99
2022-09-13T00:01:02.041Z,99.99
2022-09-13T00:02:01.918Z,99.99
2022-09-13T00:03:01.812Z,99.99
2022-09-13T00:04:01.729Z,99.99
2022-09-13T00:05:01.643Z,99.99
2022-09-13T00:06:01.558Z,99.99
2022-09-13T00:07:01.465Z,99.99
2022-09-13T00:08:01.381Z,99.99
2022-09-13T00:09:01.371Z,99.87
2022-09-13T00:10:01.209Z,99.39
2022-09-13T00:11:01.120Z,99.49
2022-09-13T00:12:01.038Z,99.29
2022-09-13T00:13:00.950Z,98.43
2022-09-13T00:14:00.861Z,97.38
2022-09-13T00:15:00.776Z,97.47
2022-09-13T00:16:00.731Z,97.56
2022-09-13T00:17:00.606Z,97.56
2022-09-13T00:18:00.518Z,97.47
2022-09-13T00:19:00.433Z,96.89
2022-09-13T00:20:00.344Z,96.99
2022-09-13T00:21:00.258Z,95.94
2022-09-13T00:22:00.172Z,95.65
2022-09-13T00:23:00.093Z,96.27
2022-09-13T00:24:00.004Z,95.70
2022-09-13T00:24:59.914Z,95.03
2022-09-13T00:25:59.834Z,95.21
2022-09-13T00:26:59.745Z,94.83
2022-09-13T00:27:59.658Z,94.64
2022-09-13T00:28:59.573Z,94.16
2022-09-13T00:29:59.485Z,94.35
2022-09-13T00:30:59.399Z,93.97
2022-09-13T00:31:59.361Z,93.77
2022-09-13T00:32:59.229Z,93.59
2022-09-13T00:33:59.146Z,93.77
2022-09-13T00:34:59.062Z,93.39
2022-09-13T00:35:58.969Z,93.30
2022-09-13T00:36:58.877Z,93.30
2022-09-13T00:37:58.798Z,93.77
2022-09-13T00:38:58.711Z,93.59
2022-09-13T00:39:58.645Z,93.77
2022-09-13T00:40:58.538Z,93.49
2022-09-13T00:41:58.463Z,93.59
2022-09-13T00:42:58.372Z,94.16
2022-09-13T00:43:58.279Z,94.26
2022-09-13T00:44:58.200Z,94.07
2022-09-13T00:45:58.220Z,93.87
2022-09-13T00:46:58.025Z,94.35
2022-09-13T00:47:57.937Z,94.83
2022-09-13T00:48:57.856Z,94.59
2022-09-13T00:49:57.771Z,94.88
2022-09-13T00:50:57.683Z,94.40
2022-09-13T00:51:57.602Z,95.07
2022-09-13T00:52:57.515Z,95.17
2022-09-13T00:53:57.428Z,94.93
2022-09-13T00:54:57.342Z,94.45
2022-09-13T00:55:57.258Z,93.87
2022-09-13T00:56:57.169Z,93.87
2022-09-13T00:57:57.082Z,93.87
2022-09-13T00:58:57.004Z,93.15
2022-09-13T00:59:56.924Z,91.90
2022-09-13T01:00:56.881Z,91.18
2022-09-13T01:01:56.767Z,90.60
2022-09-13T01:02:56.660Z,90.31
2022-09-13T01:03:56.570Z,89.07
2022-09-13T01:04:56.485Z,89.78
2022-09-13T01:05:56.397Z,89.01
2022-09-13T01:06:56.317Z,88.73
2022-09-13T01:07:56.231Z,88.92
2022-09-13T01:08:56.146Z,88.44
2022-09-13T01:09:56.058Z,87.96
2022-09-13T01:10:55.970Z,87.29
2022-09-13T01:11:55.888Z,86.90
2022-09-13T01:12:55.806Z,86.80
2022-09-13T01:13:55.725Z,86.85
2022-09-13T01:14:55.632Z,86.61
2022-09-13T01:15:55.548Z,86.61
2022-09-13T01:16:55.502Z,86.80
2022-09-13T01:17:55.383Z,86.90
2022-09-13T01:18:55.297Z,86.61
2022-09-13T01:19:55.200Z,87.04
2022-09-13T01:20:55.119Z,86.85
2022-09-13T01:21:55.038Z,86.94
2022-09-13T01:22:54.954Z,87.38
2022-09-13T01:23:54.865Z,87.48
2022-09-13T01:24:54.786Z,87.76
2022-09-13T01:25:54.695Z,87.86
2022-09-13T01:26:54.610Z,87.86
2022-09-13T01:27:54.523Z,87.86
2022-09-13T01:28:54.443Z,87.96
2022-09-13T01:29:54.361Z,88.34
2022-09-13T01:30:54.275Z,88.44
2022-09-13T01:31:54.290Z,88.34
2022-09-13T01:32:54.101Z,88.44
2022-09-13T01:33:54.011Z,88.44
2022-09-13T01:34:53.934Z,88.44
2022-09-13T01:35:53.841Z,88.34
2022-09-13T01:36:53.755Z,88.34
2022-09-13T01:37:53.681Z,88.44
2022-09-13T01:38:53.584Z,88.24
2022-09-13T01:39:53.537Z,88.24
2022-09-13T01:40:53.425Z,88.53
2022-09-13T01:41:53.335Z,88.82
2022-09-13T01:42:53.250Z,88.44
2022-09-13T01:43:53.167Z,88.92
2022-09-13T01:44:53.079Z,88.63
2022-09-13T01:45:53.038Z,88.63
2022-09-13T01:46:52.909Z,89.11
2022-09-13T01:47:52.824Z,89.30
2022-09-13T01:48:52.740Z,89.50
2022-09-13T01:49:52.654Z,89.59
2022-09-13T01:50:52.569Z,89.88
2022-09-13T01:51:52.487Z,90.17
2022-09-13T01:52:52.398Z,90.07
2022-09-13T01:53:52.318Z,90.07
2022-09-13T01:54:52.232Z,90.17
2022-09-13T01:55:52.150Z,90.26
2022-09-13T01:56:52.063Z,90.36
2022-09-13T01:57:51.975Z,90.26
2022-09-13T01:58:51.892Z,90.75
2022-09-13T01:59:51.805Z,90.22
2022-09-13T02:00:51.760Z,90.60
2022-09-13T02:01:51.696Z,91.08
2022-09-13T02:02:51.550Z,90.70
2022-09-13T02:03:51.470Z,90.99
2022-09-13T02:04:51.381Z,90.89
2022-09-13T02:05:51.290Z,91.22
2022-09-13T02:06:51.210Z,91.03
2022-09-13T02:07:51.128Z,91.03
2022-09-13T02:08:51.047Z,90.55
2022-09-13T02:09:50.953Z,90.36
2022-09-13T02:10:50.873Z,90.07
2022-09-13T02:11:50.783Z,89.64
2022-09-13T02:12:50.700Z,89.35
2022-09-13T02:13:50.619Z,88.77
2022-09-13T02:14:50.535Z,88.96
2022-09-13T02:15:50.442Z,88.77
2022-09-13T02:16:50.405Z,89.06
2022-09-13T02:17:50.283Z,88.48
2022-09-13T02:18:50.192Z,88.39
2022-09-13T02:19:50.114Z,88.19
2022-09-13T02:20:50.031Z,88.19
2022-09-13T02:21:49.942Z,88.19
2022-09-13T02:22:49.851Z,87.81
2022-09-13T02:23:49.913Z,87.62
2022-09-13T02:24:49.684Z,87.90
2022-09-13T02:25:49.599Z,88.48
2022-09-13T02:26:49.510Z,89.06
2022-09-13T02:27:49.433Z,89.15
2022-09-13T02:28:49.351Z,88.96
2022-09-13T02:29:49.257Z,88.96
2022-09-13T02:30:49.180Z,88.48
2022-09-13T02:31:49.174Z,88.96
2022-09-13T02:32:49.079Z,88.77
2022-09-13T02:33:49.068Z,88.96
2022-09-13T02:34:48.834Z,88.29
2022-09-13T02:35:48.755Z,88.48
2022-09-13T02:36:48.667Z,87.90
2022-09-13T02:37:48.584Z,87.90
2022-09-13T02:38:48.507Z,88.19
2022-09-13T02:39:48.438Z,87.90
2022-09-13T02:40:48.322Z,87.62
2022-09-13T02:41:48.241Z,87.90
2022-09-13T02:42:48.152Z,87.23
2022-09-13T02:43:48.075Z,87.23
2022-09-13T02:44:47.996Z,87.46
2022-09-13T02:45:47.984Z,87.13
2022-09-13T02:46:47.818Z,87.56
2022-09-13T02:47:47.736Z,87.08
2022-09-13T02:48:47.725Z,86.89
2022-09-13T02:49:47.564Z,87.18
2022-09-13T02:50:47.483Z,86.51
2022-09-13T02:51:47.395Z,86.31
2022-09-13T02:52:48.269Z,86.69
2022-09-13T02:53:47.227Z,86.79
2022-09-13T02:54:47.139Z,86.79
2022-09-13T02:55:47.057Z,86.79
2022-09-13T02:56:46.975Z,87.08
2022-09-13T02:57:46.890Z,87.46
2022-09-13T02:58:46.806Z,87.33
2022-09-13T02:59:46.718Z,86.99
2022-09-13T03:00:46.679Z,86.89
2022-09-13T03:01:46.581Z,86.41
2022-09-13T03:02:46.467Z,86.79
2022-09-13T03:03:46.379Z,86.41
2022-09-13T03:04:46.365Z,86.31
2022-09-13T03:05:46.213Z,86.22
2022-09-13T03:06:46.126Z,86.31
2022-09-13T03:07:46.042Z,85.93
2022-09-13T03:08:45.957Z,85.93
2022-09-13T03:09:45.873Z,86.31
2022-09-13T03:10:45.788Z,86.22
2022-09-13T03:11:45.702Z,86.22
2022-09-13T03:12:45.621Z,86.22
2022-09-13T03:13:45.529Z,86.22
2022-09-13T03:14:45.450Z,86.79
2022-09-13T03:15:45.364Z,86.69
2022-09-13T03:16:45.321Z,86.51
2022-09-13T03:17:45.198Z,86.41
2022-09-13T03:18:45.143Z,86.51
2022-09-13T03:19:45.029Z,87.08
2022-09-13T03:20:44.945Z,87.08
2022-09-13T03:21:44.855Z,86.89
2022-09-13T03:22:44.771Z,86.79
2022-09-13T03:23:44.687Z,87.08
2022-09-13T03:24:44.603Z,86.89
2022-09-13T03:25:44.519Z,86.41
2022-09-13T03:26:44.437Z,86.51
2022-09-13T03:27:44.351Z,86.31
2022-09-13T03:28:44.267Z,86.99
2022-09-13T03:29:44.176Z,86.79
2022-09-13T03:30:44.099Z,86.99
2022-09-13T03:31:44.091Z,87.46
2022-09-13T03:32:43.940Z,87.37
2022-09-13T03:33:43.844Z,87.46
2022-09-13T03:34:43.755Z,87.95
2022-09-13T03:35:43.678Z,87.56
2022-09-13T03:36:43.588Z,87.46
2022-09-13T03:37:43.508Z,87.18
2022-09-13T03:38:43.422Z,87.46
2022-09-13T03:39:43.374Z,87.46
2022-09-13T03:40:43.253Z,87.56
2022-09-13T03:41:43.167Z,88.00
2022-09-13T03:42:43.086Z,88.53
2022-09-13T03:43:42.997Z,88.19
2022-09-13T03:44:42.923Z,88.29
2022-09-13T03:45:42.915Z,88.29
2022-09-13T03:46:42.747Z,88.39
2022-09-13T03:47:42.662Z,88.96
2022-09-13T03:48:42.603Z,89.44
2022-09-13T03:49:42.497Z,89.64
2022-09-13T03:50:42.410Z,89.64
2022-09-13T03:51:42.326Z,89.92
2022-09-13T03:52:46.281Z,89.83
2022-09-13T03:53:42.154Z,90.89
2022-09-13T03:54:42.070Z,91.27
2022-09-13T03:55:41.986Z,91.75
2022-09-13T03:56:41.900Z,92.61
2022-09-13T03:57:41.818Z,93.87
2022-09-13T03:58:41.735Z,93.58
2022-09-13T03:59:41.650Z,93.82
2022-09-13T04:00:41.566Z,95.07
2022-09-13T04:01:41.480Z,94.78
2022-09-13T04:02:41.400Z,95.45
2022-09-13T04:03:41.312Z,96.32
2022-09-13T04:04:41.229Z,97.09
2022-09-13T04:05:41.142Z,97.67
2022-09-13T04:06:41.054Z,98.44
2022-09-13T04:07:40.977Z,99.06
2022-09-13T04:08:40.959Z,99.15
2022-09-13T04:09:40.808Z,99.83
2022-09-13T04:10:40.729Z,99.99
2022-09-13T04:11:40.638Z,99.99
2022-09-13T04:12:40.555Z,99.99
2022-09-13T04:13:40.463Z,99.99
2022-09-13T04:14:40.383Z,99.99
2022-09-13T04:15:40.298Z,99.99
2022-09-13T04:16:40.250Z,99.99
2022-09-13T04:17:40.128Z,99.99
2022-09-13T04:18:40.044Z,99.99
2022-09-13T04:19:39.960Z,99.99
2022-09-13T04:20:39.888Z,99.99
2022-09-13T04:21:39.791Z,99.99
2022-09-13T04:22:39.703Z,99.99
2022-09-13T04:23:39.622Z,99.99
2022-09-13T04:24:39.619Z,99.99
2022-09-13T04:25:39.452Z,99.99
2022-09-13T04:26:39.360Z,99.99
2022-09-13T04:27:39.285Z,99.99
2022-09-13T04:28:39.199Z,99.99
2022-09-13T04:29:39.116Z,99.99
2022-09-13T04:30:42.618Z,99.99
2022-09-13T04:31:39.003Z,99.99
2022-09-13T04:32:38.861Z,99.99
2022-09-13T04:33:38.771Z,99.99
2022-09-13T04:34:38.693Z,99.99
2022-09-13T04:35:38.602Z,99.99
2022-09-13T04:36:38.521Z,99.99
2022-09-13T04:37:38.436Z,99.99
2022-09-13T04:38:38.353Z,99.99
2022-09-13T04:39:38.272Z,99.99
2022-09-13T04:40:38.187Z,99.99
2022-09-13T04:41:38.100Z,99.99
2022-09-13T04:42:38.011Z,99.99
2022-09-13T04:43:37.925Z,99.99
2022-09-13T04:44:37.839Z,99.99
2022-09-13T04:45:37.795Z,99.99
2022-09-13T04:46:37.670Z,99.99
2022-09-13T04:47:37.592Z,99.99
2022-09-13T04:48:37.587Z,99.99
2022-09-13T04:49:37.434Z,99.99
2022-09-13T04:50:37.331Z,99.99
2022-09-13T04:51:37.252Z,99.99
2022-09-13T04:52:37.164Z,99.99
2022-09-13T04:53:37.080Z,99.99
2022-09-13T04:54:37.000Z,99.99
2022-09-13T04:55:36.918Z,99.99
2022-09-13T04:56:36.828Z,99.99
2022-09-13T04:57:36.743Z,99.99
2022-09-13T04:58:36.654Z,99.99
2022-09-13T04:59:36.574Z,99.99
2022-09-13T05:00:36.487Z,99.99
2022-09-13T05:01:36.456Z,99.99
2022-09-13T05:02:36.415Z,99.99
2022-09-13T05:03:36.231Z,99.99
2022-09-13T05:04:36.143Z,99.99
2022-09-13T05:05:36.059Z,99.99
2022-09-13T05:06:35.984Z,99.99
2022-09-13T05:07:35.891Z,99.99
2022-09-13T05:08:35.808Z,99.99
2022-09-13T05:09:35.723Z,99.99
2022-09-13T05:10:35.640Z,99.99
2022-09-13T05:11:35.553Z,99.99
2022-09-13T05:12:35.469Z,99.99
2022-09-13T05:13:35.387Z,99.99
2022-09-13T05:14:35.297Z,99.99
2022-09-13T05:15:35.220Z,99.99
2022-09-13T05:16:35.131Z,99.99
2022-09-13T05:17:35.046Z,99.99
2022-09-13T05:18:34.960Z,99.99
2022-09-13T05:19:34.878Z,99.35
2022-09-13T05:20:34.792Z,99.44
2022-09-13T05:21:34.707Z,99.92
2022-09-13T05:22:34.624Z,99.99
2022-09-13T05:23:34.533Z,98.96
2022-09-13T05:24:34.451Z,98.86
2022-09-13T05:25:34.370Z,98.96
2022-09-13T05:26:34.279Z,98.68
2022-09-13T05:27:34.195Z,98.48
2022-09-13T05:28:34.121Z,97.62
2022-09-13T05:29:34.031Z,97.14
2022-09-13T05:30:33.953Z,97.09
2022-09-13T05:31:33.930Z,96.99
2022-09-13T05:32:33.772Z,96.80
2022-09-13T05:33:33.692Z,97.09
2022-09-13T05:34:33.604Z,96.90
2022-09-13T05:35:33.523Z,97.28
2022-09-13T05:36:33.440Z,96.90
2022-09-13T05:37:33.352Z,95.94
2022-09-13T05:38:33.269Z,95.94
2022-09-13T05:39:48.811Z,96.70
2022-09-13T05:40:33.132Z,96.32
2022-09-13T05:41:33.120Z,96.90
2022-09-13T05:42:32.929Z,96.90
2022-09-13T05:43:32.841Z,96.99
2022-09-13T05:44:32.754Z,96.32
2022-09-13T05:45:32.671Z,96.90
2022-09-13T05:46:32.627Z,96.32
2022-09-13T05:47:32.505Z,96.61
2022-09-13T05:48:32.421Z,96.75
2022-09-13T05:49:32.324Z,96.90
2022-09-13T05:50:57.255Z,97.47
2022-09-13T05:51:32.154Z,97.52
2022-09-13T05:52:32.102Z,97.71
2022-09-13T05:53:32.005Z,97.62
2022-09-13T05:54:31.906Z,97.71
2022-09-13T05:55:31.824Z,97.42
2022-09-13T05:56:31.748Z,97.71
2022-09-13T05:57:31.656Z,98.39
2022-09-13T05:58:31.572Z,98.00
2022-09-13T05:59:31.502Z,98.39
2022-09-13T06:00:31.398Z,98.10
2022-09-13T06:01:31.923Z,98.39
2022-09-13T06:02:31.298Z,98.58
2022-09-13T06:03:31.152Z,98.48
2022-09-13T06:04:31.067Z,98.39
2022-09-13T06:05:32.026Z,99.15
2022-09-13T06:06:30.892Z,99.25
2022-09-13T06:07:30.811Z,99.06
2022-09-13T06:08:30.730Z,98.96
2022-09-13T06:09:30.641Z,99.25
2022-09-13T06:10:30.558Z,99.73
2022-09-13T06:11:30.471Z,99.54
2022-09-13T06:12:30.393Z,99.83
2022-09-13T06:13:30.305Z,99.63
2022-09-13T06:14:30.219Z,98.48
2022-09-13T06:15:30.132Z,98.48
2022-09-13T06:16:30.178Z,98.68
2022-09-13T06:17:29.966Z,99.06
2022-09-13T06:18:29.878Z,99.15
2022-09-13T06:19:29.799Z,98.68
2022-09-13T06:20:29.717Z,98.58
2022-09-13T06:21:29.672Z,98.68
2022-09-13T06:22:29.539Z,98.86
2022-09-13T06:23:29.456Z,98.63
2022-09-13T06:24:29.372Z,98.29
2022-09-13T06:25:29.289Z,98.48
2022-09-13T06:26:29.202Z,98.10
2022-09-13T06:27:29.124Z,98.82
2022-09-13T06:28:29.044Z,98.53
2022-09-13T06:29:28.951Z,97.57
2022-09-13T06:30:28.872Z,97.47
2022-09-13T06:31:28.873Z,97.28
2022-09-13T06:32:28.696Z,97.38
2022-09-13T06:33:28.611Z,96.13
2022-09-13T06:34:31.370Z,96.99
2022-09-13T06:35:28.445Z,97.28
2022-09-13T06:36:28.368Z,97.09
2022-09-13T06:37:28.277Z,97.47
2022-09-13T06:38:28.196Z,97.47
2022-09-13T06:39:28.110Z,97.38
2022-09-13T06:40:28.165Z,95.94
2022-09-13T06:41:27.940Z,95.36
2022-09-13T06:42:27.854Z,95.21
2022-09-13T06:43:27.766Z,96.08
2022-09-13T06:44:27.689Z,96.37
2022-09-13T06:45:27.605Z,95.98
2022-09-13T06:46:27.550Z,95.98
2022-09-13T06:47:27.443Z,96.17
2022-09-13T06:48:27.352Z,96.08
2022-09-13T06:49:27.269Z,96.75
2022-09-13T06:50:27.192Z,96.37
2022-09-13T06:51:27.105Z,97.04
2022-09-13T06:52:27.017Z,96.37
2022-09-13T06:53:26.925Z,95.21
2022-09-13T06:54:26.850Z,94.92
2022-09-13T06:55:26.764Z,94.92
2022-09-13T06:56:26.690Z,94.92
2022-09-13T06:57:26.598Z,94.92
2022-09-13T06:58:26.516Z,94.10
2022-09-13T06:59:26.429Z,94.68
2022-09-13T07:00:26.348Z,93.82
2022-09-13T07:01:26.360Z,93.53
2022-09-13T07:02:26.213Z,92.95
2022-09-13T07:03:26.091Z,93.24
2022-09-13T07:04:26.085Z,93.43
2022-09-13T07:05:25.929Z,92.71
2022-09-13T07:06:25.836Z,92.80
2022-09-13T07:07:25.759Z,91.84
2022-09-13T07:08:25.675Z,91.36
2022-09-13T07:09:25.584Z,91.94
2022-09-13T07:10:25.647Z,92.03
2022-09-13T07:11:25.428Z,91.36
2022-09-13T07:12:25.346Z,91.07
2022-09-13T07:13:25.254Z,90.59
2022-09-13T07:14:25.163Z,91.27
2022-09-13T07:15:25.087Z,90.78
2022-09-13T07:16:25.007Z,91.75
2022-09-13T07:17:28.458Z,90.69
2022-09-13T07:18:24.835Z,91.27
2022-09-13T07:19:24.746Z,91.27
2022-09-13T07:20:24.784Z,91.84
2022-09-13T07:21:24.585Z,90.88
2022-09-13T07:22:24.510Z,90.69
2022-09-13T07:23:24.414Z,90.97
2022-09-13T07:24:24.332Z,90.69
2022-09-13T07:25:24.247Z,90.78
2022-09-13T07:26:24.167Z,90.78
2022-09-13T07:27:24.082Z,91.27
2022-09-13T07:28:27.350Z,91.02
2022-09-13T07:29:24.135Z,90.01
2022-09-13T07:30:23.843Z,90.69
2022-09-13T07:31:23.759Z,90.69
2022-09-13T07:32:23.660Z,90.92
2022-09-13T07:33:23.579Z,90.40
2022-09-13T07:34:23.495Z,90.78
2022-09-13T07:35:23.412Z,90.64
2022-09-13T07:36:23.328Z,90.54
2022-09-13T07:37:23.246Z,89.96
2022-09-13T07:38:23.159Z,89.48
2022-09-13T07:39:23.352Z,89.67
2022-09-13T07:40:23.068Z,90.06
2022-09-13T07:41:22.912Z,90.16
2022-09-13T07:42:22.822Z,89.39
2022-09-13T07:43:22.746Z,90.54
2022-09-13T07:44:22.654Z,89.77
2022-09-13T07:45:22.577Z,90.06
2022-09-13T07:46:22.668Z,89.67
2022-09-13T07:47:22.407Z,89.09
2022-09-13T07:48:22.324Z,88.90
2022-09-13T07:49:22.239Z,89.00
2022-09-13T07:50:22.177Z,89.09
2022-09-13T07:51:22.074Z,88.51
2022-09-13T07:52:21.991Z,88.71
2022-09-13T07:53:21.909Z,88.51
2022-09-13T07:54:21.820Z,88.32
2022-09-13T07:55:21.738Z,87.94
2022-09-13T07:56:21.653Z,88.27
2022-09-13T07:57:21.571Z,88.65
2022-09-13T07:58:21.492Z,88.27
2022-09-13T07:59:21.404Z,88.08
2022-09-13T08:00:21.355Z,88.65
2022-09-13T08:01:21.292Z,87.30
2022-09-13T08:02:21.202Z,86.92
2022-09-13T08:03:21.073Z,86.44
2022-09-13T08:04:20.993Z,87.88
2022-09-13T08:05:20.909Z,87.79
2022-09-13T08:06:20.823Z,86.73
2022-09-13T08:07:20.738Z,86.35
2022-09-13T08:08:20.725Z,86.44
2022-09-13T08:09:20.572Z,86.54
2022-09-13T08:10:20.514Z,85.96
2022-09-13T08:11:20.407Z,85.28
2022-09-13T08:12:20.327Z,85.67
2022-09-13T08:13:20.238Z,85.91
2022-09-13T08:14:20.152Z,86.10
2022-09-13T08:15:20.071Z,85.91
2022-09-13T08:16:19.989Z,86.39
2022-09-13T08:17:19.906Z,85.61
2022-09-13T08:18:19.824Z,85.42
2022-09-13T08:19:19.736Z,85.71
2022-09-13T08:20:19.760Z,85.52
2022-09-13T08:21:19.568Z,85.33
2022-09-13T08:22:19.487Z,85.33
2022-09-13T08:23:19.408Z,85.13
2022-09-13T08:24:19.325Z,85.42
2022-09-13T08:25:19.237Z,85.42
2022-09-13T08:26:19.159Z,85.23
2022-09-13T08:27:19.073Z,85.13
2022-09-13T08:28:18.991Z,85.42
2022-09-13T08:29:18.906Z,84.89
2022-09-13T08:30:18.830Z,85.17
2022-09-13T08:31:18.799Z,85.17
2022-09-13T08:32:18.656Z,84.89
2022-09-13T08:33:18.568Z,84.98
2022-09-13T08:34:18.491Z,84.98
2022-09-13T08:35:18.410Z,84.79
2022-09-13T08:36:18.330Z,85.08
2022-09-13T08:37:18.242Z,84.59
2022-09-13T08:38:18.161Z,84.31
2022-09-13T08:39:18.075Z,84.59
2022-09-13T08:40:18.069Z,84.50
2022-09-13T08:41:17.913Z,84.01
2022-09-13T08:42:17.832Z,84.11
2022-09-13T08:43:17.741Z,84.11
2022-09-13T08:44:17.654Z,84.41
2022-09-13T08:45:17.586Z,84.31
2022-09-13T08:46:17.556Z,84.11
2022-09-13T08:47:17.415Z,84.11
2022-09-13T08:48:17.331Z,83.96
2022-09-13T08:49:17.251Z,83.44
2022-09-13T08:50:17.159Z,83.83
2022-09-13T08:51:17.082Z,84.31
2022-09-13T08:52:16.998Z,84.59
2022-09-13T08:53:16.913Z,84.31
2022-09-13T08:54:16.832Z,84.50
2022-09-13T08:55:16.744Z,84.69
2022-09-13T08:56:16.666Z,84.69
2022-09-13T08:57:16.584Z,84.31
2022-09-13T08:58:16.501Z,84.59
2022-09-13T08:59:16.416Z,84.79
2022-09-13T09:00:20.501Z,83.92
2022-09-13T09:01:16.309Z,84.44
2022-09-13T09:02:16.198Z,83.92
2022-09-13T09:03:16.088Z,83.92
2022-09-13T09:04:16.013Z,84.21
2022-09-13T09:05:15.924Z,84.35
2022-09-13T09:06:15.835Z,83.87
2022-09-13T09:07:15.761Z,83.96
2022-09-13T09:08:15.675Z,83.77
2022-09-13T09:09:15.599Z,83.29
2022-09-13T09:10:15.504Z,83.96
2022-09-13T09:11:15.426Z,83.48
2022-09-13T09:12:15.414Z,83.58
2022-09-13T09:13:15.266Z,83.19
2022-09-13T09:14:15.175Z,83.00
2022-09-13T09:15:15.092Z,82.71
2022-09-13T09:16:15.046Z,83.09
2022-09-13T09:17:14.933Z,83.19
2022-09-13T09:18:14.850Z,83.29
2022-09-13T09:19:14.761Z,82.51
2022-09-13T09:20:14.680Z,83.58
2022-09-13T09:21:14.597Z,83.39
2022-09-13T09:22:14.513Z,83.67
2022-09-13T09:23:19.083Z,83.48
2022-09-13T09:24:14.349Z,83.58
2022-09-13T09:25:14.265Z,83.29
2022-09-13T09:26:14.181Z,83.96
2022-09-13T09:27:14.102Z,84.06
2022-09-13T09:28:14.027Z,83.58
2022-09-13T09:29:13.937Z,83.39
2022-09-13T09:30:13.853Z,82.42
2022-09-13T09:31:13.808Z,82.61
2022-09-13T09:32:13.681Z,83.00
2022-09-13T09:33:13.606Z,83.19
2022-09-13T09:34:13.522Z,83.19
2022-09-13T09:35:13.440Z,83.48
2022-09-13T09:36:13.357Z,82.90
2022-09-13T09:37:13.278Z,83.19
2022-09-13T09:38:13.189Z,82.90
2022-09-13T09:39:13.112Z,83.00
2022-09-13T09:40:13.090Z,82.84
2022-09-13T09:41:12.945Z,82.46
2022-09-13T09:42:12.865Z,82.46
2022-09-13T09:43:12.777Z,82.17
2022-09-13T09:44:12.695Z,82.26
2022-09-13T09:45:12.620Z,81.93
2022-09-13T09:46:12.900Z,82.42
2022-09-13T09:47:12.448Z,83.00
2022-09-13T09:48:12.362Z,83.00
2022-09-13T09:49:12.293Z,83.19
2022-09-13T09:50:12.249Z,83.04
2022-09-13T09:51:12.118Z,83.33
2022-09-13T09:52:12.036Z,81.88
2022-09-13T09:53:11.960Z,81.24
2022-09-13T09:54:11.868Z,82.50
2022-09-13T09:55:11.795Z,81.24
2022-09-13T09:56:11.698Z,81.44
2022-09-13T09:57:11.628Z,81.38
2022-09-13T09:58:11.543Z,79.99
2022-09-13T09:59:11.480Z,79.89
2022-09-13T10:00:11.380Z,80.28
2022-09-13T10:01:11.488Z,79.89
2022-09-13T10:02:11.257Z,79.74
2022-09-13T10:03:11.131Z,80.61
2022-09-13T10:04:11.044Z,80.71
2022-09-13T10:05:10.965Z,79.93
2022-09-13T10:06:10.888Z,79.74
2022-09-13T10:07:15.553Z,79.93
2022-09-13T10:08:10.722Z,79.25
2022-09-13T10:09:10.636Z,80.12
2022-09-13T10:10:10.558Z,78.96
2022-09-13T10:11:10.480Z,79.25
2022-09-13T10:12:10.394Z,80.03
2022-09-13T10:13:10.306Z,80.41
2022-09-13T10:14:10.231Z,80.03
2022-09-13T10:15:10.159Z,80.12
2022-09-13T10:16:10.061Z,80.61
2022-09-13T10:17:09.982Z,80.32
2022-09-13T10:18:21.313Z,80.47
2022-09-13T10:19:11.553Z,80.66
2022-09-13T10:20:09.735Z,80.38
2022-09-13T10:21:09.682Z,81.05
2022-09-13T10:22:09.576Z,80.51
2022-09-13T10:23:09.493Z,80.61
2022-09-13T10:24:09.409Z,80.51
2022-09-13T10:25:09.323Z,80.47
2022-09-13T10:26:09.243Z,80.18
2022-09-13T10:27:09.162Z,81.05
2022-09-13T10:28:09.084Z,81.15
2022-09-13T10:29:09.003Z,81.05
2022-09-13T10:30:08.922Z,81.24
2022-09-13T10:31:08.885Z,81.92
2022-09-13T10:32:08.753Z,81.34
2022-09-13T10:33:08.674Z,81.92
2022-09-13T10:34:08.594Z,82.21
2022-09-13T10:35:08.511Z,82.40
2022-09-13T10:36:08.429Z,81.92
2022-09-13T10:37:08.348Z,82.50
2022-09-13T10:38:08.257Z,81.92
2022-09-13T10:39:08.176Z,82.31
2022-09-13T10:40:08.205Z,82.31
2022-09-13T10:41:08.021Z,82.02
2022-09-13T10:42:07.931Z,81.96
2022-09-13T10:43:07.877Z,82.54
2022-09-13T10:44:09.747Z,82.54
2022-09-13T10:45:07.688Z,81.77
2022-09-13T10:46:07.628Z,82.35
2022-09-13T10:47:07.533Z,81.96
2022-09-13T10:48:07.438Z,81.57
2022-09-13T10:49:07.368Z,81.19
2022-09-13T10:50:07.284Z,81.38
2022-09-13T10:51:07.200Z,82.06
2022-09-13T10:52:09.572Z,81.19
2022-09-13T10:53:15.694Z,82.06
2022-09-13T10:55:11.341Z,82.25
2022-09-13T10:56:11.242Z,82.25
2022-09-13T10:57:11.159Z,82.35
2022-09-13T10:58:11.088Z,82.06
2022-09-13T10:59:10.993Z,82.10
2022-09-13T11:00:11.054Z,81.52
2022-09-13T11:01:10.893Z,81.42
2022-09-13T11:02:10.767Z,80.94
2022-09-13T11:03:10.672Z,81.56
2022-09-13T11:04:10.693Z,82.04
2022-09-13T11:05:10.512Z,82.43
2022-09-13T11:06:10.425Z,81.37
2022-09-13T11:07:10.350Z,81.17
2022-09-13T11:08:10.263Z,80.59
2022-09-13T11:09:10.183Z,80.79
2022-09-13T11:10:10.099Z,80.30
2022-09-13T11:11:10.018Z,80.49
2022-09-13T11:12:09.936Z,80.59
2022-09-13T11:13:09.852Z,80.40
2022-09-13T11:14:09.796Z,81.37
2022-09-13T11:15:09.694Z,81.37
2022-09-13T11:16:09.678Z,80.79
2022-09-13T11:17:09.524Z,81.37
2022-09-13T11:18:09.456Z,81.52
2022-09-13T11:19:09.364Z,81.56
2022-09-13T11:20:09.288Z,81.46
2022-09-13T11:21:09.226Z,81.37
2022-09-13T11:22:09.123Z,81.65
2022-09-13T11:23:09.038Z,80.98
2022-09-13T11:24:08.958Z,81.37
2022-09-13T11:25:08.879Z,81.56
2022-09-13T11:26:08.800Z,81.37
2022-09-13T11:27:08.716Z,81.37
2022-09-13T11:28:08.629Z,81.65
2022-09-13T11:29:08.556Z,81.13
2022-09-13T11:30:08.477Z,82.97
2022-09-13T11:31:08.408Z,82.68
2022-09-13T11:32:08.347Z,82.68
2022-09-13T11:33:08.222Z,82.78
2022-09-13T11:34:08.141Z,82.29
2022-09-13T11:35:08.057Z,82.97
2022-09-13T11:36:07.974Z,82.00
2022-09-13T11:37:07.898Z,82.10
2022-09-13T11:38:07.817Z,82.83
2022-09-13T11:39:07.735Z,83.41
2022-09-13T11:40:07.684Z,82.83
2022-09-13T11:41:07.568Z,83.51
2022-09-13T11:42:07.486Z,83.41
2022-09-13T11:43:07.408Z,84.19
2022-09-13T11:44:07.327Z,83.89
2022-09-13T11:45:07.243Z,83.51
2022-09-13T11:46:07.228Z,84.14
2022-09-13T11:47:07.075Z,84.24
2022-09-13T11:48:06.997Z,84.43
2022-09-13T11:49:06.914Z,84.24
2022-09-13T11:50:06.837Z,84.14
2022-09-13T11:51:06.754Z,85.05
2022-09-13T11:52:06.668Z,84.95
2022-09-13T11:53:06.589Z,85.15
2022-09-13T11:54:06.507Z,84.86
2022-09-13T11:55:06.428Z,84.77
2022-09-13T11:56:06.346Z,85.05
2022-09-13T11:57:06.257Z,85.01
2022-09-13T11:58:06.185Z,84.82
2022-09-13T11:59:06.095Z,84.43
2022-09-13T12:00:06.022Z,84.43
2022-09-13T12:01:05.939Z,85.69
2022-09-13T12:02:05.997Z,86.52
2022-09-13T12:03:05.889Z,88.15
2022-09-13T12:04:05.689Z,87.67
2022-09-13T12:05:21.630Z,88.54
2022-09-13T12:06:05.527Z,88.93
2022-09-13T12:07:05.517Z,89.12
2022-09-13T12:08:05.361Z,89.07
2022-09-13T12:09:05.276Z,89.17
2022-09-13T12:10:05.199Z,90.23
2022-09-13T12:11:05.120Z,90.14
2022-09-13T12:12:05.049Z,90.14
2022-09-13T12:13:04.960Z,90.72
2022-09-13T12:14:04.877Z,90.62
2022-09-13T12:15:04.787Z,91.01
2022-09-13T12:16:04.756Z,90.81
2022-09-13T12:17:04.624Z,90.86
2022-09-13T12:18:04.542Z,90.53
2022-09-13T12:19:04.462Z,91.01
2022-09-13T12:20:04.383Z,90.62
2022-09-13T12:21:04.287Z,90.62
2022-09-13T12:22:04.214Z,90.91
2022-09-13T12:23:04.131Z,90.91
2022-09-13T12:24:04.043Z,90.81
2022-09-13T12:25:03.965Z,90.67
2022-09-13T12:26:03.885Z,90.28
2022-09-13T12:27:03.802Z,90.37
2022-09-13T12:28:03.722Z,90.57
2022-09-13T12:29:03.641Z,90.67
2022-09-13T12:30:03.557Z,90.67
2022-09-13T12:31:03.472Z,90.14
2022-09-13T12:32:03.447Z,90.72
2022-09-13T12:33:03.304Z,90.14
2022-09-13T12:34:03.229Z,91.20
2022-09-13T12:35:03.145Z,91.01
2022-09-13T12:36:03.066Z,90.91
2022-09-13T12:37:02.980Z,91.59
2022-09-13T12:38:02.898Z,91.88
2022-09-13T12:39:02.817Z,91.49
2022-09-13T12:40:02.773Z,91.68
2022-09-13T12:41:02.658Z,92.74
2022-09-13T12:42:02.569Z,92.74
2022-09-13T12:43:02.488Z,92.46
2022-09-13T12:44:02.404Z,92.65
2022-09-13T12:45:02.322Z,91.88
2022-09-13T12:46:02.323Z,91.30
2022-09-13T12:47:02.160Z,90.81
2022-09-13T12:48:02.083Z,91.11
2022-09-13T12:49:01.995Z,91.49
2022-09-13T12:51:01.835Z,92.07
2022-09-13T12:52:01.754Z,91.88
2022-09-13T12:53:01.666Z,91.97